sensor_id;sensor_type;location;lat;lon;timestamp;P1;durP1;ratioP1;P2;durP2;ratioP2
71106;SDS011;58763;47.982;11.516;2023-09-07T00:00:34;7.38;;;4.40;;
71106;SDS011;58763;47.982;11.516;2023-09-07T00:02:59;6.03;;;3.97;;
71106;SDS011;58763;47.982;11.516;2023-09-07T00:05:25;7.03;;;4.00;;
71106;SDS011;58763;47.982;11.516;2023-09-07T00:07:51;6.22;;;4.15;;
71106;SDS011;58763;47.982;11.516;2023-09-07T00:10:17;7.40;;;4.43;;
71106;SDS011;58763;47.982;11.516;2023-09-07T00:12:43;7.25;;;4.30;;
71106;SDS011;58763;47.982;11.516;2023-09-07T00:15:09;5.93;;;4.10;;
71106;SDS011;58763;47.982;11.516;2023-09-07T00:17:35;5.80;;;4.10;;
71106;SDS011;58763;47.982;11.516;2023-09-07T00:20:02;6.85;;;3.97;;
71106;SDS011;58763;47.982;11.516;2023-09-07T00:22:39;7.80;;;4.63;;
71106;SDS011;58763;47.982;11.516;2023-09-07T00:25:05;6.15;;;4.20;;
71106;SDS011;58763;47.982;11.516;2023-09-07T00:27:32;6.65;;;4.43;;
71106;SDS011;58763;47.982;11.516;2023-09-07T00:30:00;6.30;;;4.35;;
71106;SDS011;58763;47.982;11.516;2023-09-07T00:32:27;6.63;;;4.45;;
71106;SDS011;58763;47.982;11.516;2023-09-07T00:34:53;7.40;;;4.63;;
71106;SDS011;58763;47.982;11.516;2023-09-07T00:37:18;6.15;;;4.30;;
71106;SDS011;58763;47.982;11.516;2023-09-07T00:39:44;6.40;;;4.10;;
71106;SDS011;58763;47.982;11.516;2023-09-07T00:42:09;6.18;;;3.42;;
71106;SDS011;58763;47.982;11.516;2023-09-07T00:44:35;6.20;;;3.75;;
71106;SDS011;58763;47.982;11.516;2023-09-07T00:47:01;7.00;;;4.50;;
71106;SDS011;58763;47.982;11.516;2023-09-07T00:49:27;6.65;;;4.10;;
71106;SDS011;58763;47.982;11.516;2023-09-07T00:51:53;5.65;;;4.00;;
71106;SDS011;58763;47.982;11.516;2023-09-07T00:54:19;9.27;;;4.90;;
71106;SDS011;58763;47.982;11.516;2023-09-07T00:56:45;6.88;;;5.03;;
71106;SDS011;58763;47.982;11.516;2023-09-07T00:59:11;9.05;;;5.60;;
71106;SDS011;58763;47.982;11.516;2023-09-07T01:01:38;7.93;;;5.30;;
71106;SDS011;58763;47.982;11.516;2023-09-07T01:04:03;7.38;;;5.30;;
71106;SDS011;58763;47.982;11.516;2023-09-07T01:06:36;5.63;;;3.70;;
71106;SDS011;58763;47.982;11.516;2023-09-07T01:09:14;6.82;;;4.28;;
71106;SDS011;58763;47.982;11.516;2023-09-07T01:11:44;5.95;;;4.30;;
71106;SDS011;58763;47.982;11.516;2023-09-07T01:14:09;5.93;;;4.10;;
71106;SDS011;58763;47.982;11.516;2023-09-07T01:16:35;8.38;;;4.38;;
71106;SDS011;58763;47.982;11.516;2023-09-07T01:19:03;6.10;;;4.25;;
71106;SDS011;58763;47.982;11.516;2023-09-07T01:21:34;8.27;;;4.95;;
71106;SDS011;58763;47.982;11.516;2023-09-07T01:24:01;8.40;;;5.17;;
71106;SDS011;58763;47.982;11.516;2023-09-07T01:26:29;8.52;;;4.57;;
71106;SDS011;58763;47.982;11.516;2023-09-07T01:28:55;9.75;;;5.55;;
71106;SDS011;58763;47.982;11.516;2023-09-07T01:31:24;8.60;;;5.32;;
71106;SDS011;58763;47.982;11.516;2023-09-07T01:33:52;6.95;;;5.28;;
71106;SDS011;58763;47.982;11.516;2023-09-07T01:36:18;7.63;;;4.82;;
71106;SDS011;58763;47.982;11.516;2023-09-07T01:38:43;9.20;;;5.45;;
71106;SDS011;58763;47.982;11.516;2023-09-07T01:41:09;6.78;;;5.28;;
71106;SDS011;58763;47.982;11.516;2023-09-07T01:43:35;8.68;;;5.70;;
71106;SDS011;58763;47.982;11.516;2023-09-07T01:46:00;7.75;;;5.70;;
71106;SDS011;58763;47.982;11.516;2023-09-07T01:48:26;7.53;;;5.38;;
71106;SDS011;58763;47.982;11.516;2023-09-07T01:50:52;8.82;;;6.28;;
71106;SDS011;58763;47.982;11.516;2023-09-07T01:53:18;8.40;;;5.40;;
71106;SDS011;58763;47.982;11.516;2023-09-07T01:55:44;8.80;;;5.85;;
71106;SDS011;58763;47.982;11.516;2023-09-07T01:58:10;6.82;;;4.93;;
71106;SDS011;58763;47.982;11.516;2023-09-07T02:00:36;7.80;;;5.28;;
71106;SDS011;58763;47.982;11.516;2023-09-07T02:03:03;7.57;;;5.15;;
71106;SDS011;58763;47.982;11.516;2023-09-07T02:05:29;7.45;;;5.18;;
71106;SDS011;58763;47.982;11.516;2023-09-07T02:07:55;7.18;;;5.18;;
71106;SDS011;58763;47.982;11.516;2023-09-07T02:10:21;8.73;;;4.90;;
71106;SDS011;58763;47.982;11.516;2023-09-07T02:12:46;7.53;;;5.25;;
71106;SDS011;58763;47.982;11.516;2023-09-07T02:15:12;6.95;;;4.93;;
71106;SDS011;58763;47.982;11.516;2023-09-07T02:17:37;8.73;;;5.30;;
71106;SDS011;58763;47.982;11.516;2023-09-07T02:20:03;8.43;;;5.97;;
71106;SDS011;58763;47.982;11.516;2023-09-07T02:22:35;7.35;;;5.18;;
71106;SDS011;58763;47.982;11.516;2023-09-07T02:25:01;6.82;;;5.07;;
71106;SDS011;58763;47.982;11.516;2023-09-07T02:27:28;7.68;;;5.15;;
71106;SDS011;58763;47.982;11.516;2023-09-07T02:29:53;7.25;;;4.97;;
71106;SDS011;58763;47.982;11.516;2023-09-07T02:32:20;6.78;;;5.10;;
71106;SDS011;58763;47.982;11.516;2023-09-07T02:34:45;6.57;;;4.75;;
71106;SDS011;58763;47.982;11.516;2023-09-07T02:37:11;7.97;;;5.40;;
71106;SDS011;58763;47.982;11.516;2023-09-07T02:39:36;9.70;;;5.28;;
71106;SDS011;58763;47.982;11.516;2023-09-07T02:42:01;8.05;;;5.70;;
71106;SDS011;58763;47.982;11.516;2023-09-07T02:44:27;8.20;;;5.57;;
71106;SDS011;58763;47.982;11.516;2023-09-07T02:46:54;7.07;;;5.05;;
71106;SDS011;58763;47.982;11.516;2023-09-07T02:49:20;8.05;;;5.93;;
71106;SDS011;58763;47.982;11.516;2023-09-07T02:51:45;7.47;;;5.30;;
71106;SDS011;58763;47.982;11.516;2023-09-07T02:54:11;8.98;;;5.47;;
71106;SDS011;58763;47.982;11.516;2023-09-07T02:56:36;7.88;;;5.30;;
71106;SDS011;58763;47.982;11.516;2023-09-07T02:59:02;7.00;;;4.60;;
71106;SDS011;58763;47.982;11.516;2023-09-07T03:01:28;8.68;;;5.20;;
71106;SDS011;58763;47.982;11.516;2023-09-07T03:03:54;7.93;;;5.47;;
71106;SDS011;58763;47.982;11.516;2023-09-07T03:06:20;10.15;;;5.53;;
71106;SDS011;58763;47.982;11.516;2023-09-07T03:08:46;7.97;;;5.38;;
71106;SDS011;58763;47.982;11.516;2023-09-07T03:11:11;7.22;;;5.28;;
71106;SDS011;58763;47.982;11.516;2023-09-07T03:13:37;9.75;;;6.35;;
71106;SDS011;58763;47.982;11.516;2023-09-07T03:16:03;10.38;;;6.20;;
71106;SDS011;58763;47.982;11.516;2023-09-07T03:18:30;9.43;;;6.13;;
71106;SDS011;58763;47.982;11.516;2023-09-07T03:20:58;8.63;;;5.53;;
71106;SDS011;58763;47.982;11.516;2023-09-07T03:23:25;8.07;;;4.88;;
71106;SDS011;58763;47.982;11.516;2023-09-07T03:25:50;8.27;;;4.82;;
71106;SDS011;58763;47.982;11.516;2023-09-07T03:28:16;7.05;;;4.70;;
71106;SDS011;58763;47.982;11.516;2023-09-07T03:30:41;9.23;;;5.93;;
71106;SDS011;58763;47.982;11.516;2023-09-07T03:33:07;8.23;;;5.57;;
71106;SDS011;58763;47.982;11.516;2023-09-07T03:35:32;9.80;;;5.60;;
71106;SDS011;58763;47.982;11.516;2023-09-07T03:37:58;9.00;;;6.05;;
71106;SDS011;58763;47.982;11.516;2023-09-07T03:40:23;7.85;;;5.55;;
71106;SDS011;58763;47.982;11.516;2023-09-07T03:42:50;6.65;;;4.68;;
71106;SDS011;58763;47.982;11.516;2023-09-07T03:45:15;8.88;;;5.00;;
71106;SDS011;58763;47.982;11.516;2023-09-07T03:47:42;10.10;;;5.15;;
71106;SDS011;58763;47.982;11.516;2023-09-07T03:50:07;9.00;;;5.45;;
71106;SDS011;58763;47.982;11.516;2023-09-07T03:52:33;8.32;;;5.53;;
71106;SDS011;58763;47.982;11.516;2023-09-07T03:55:00;8.02;;;5.18;;
71106;SDS011;58763;47.982;11.516;2023-09-07T03:57:26;7.40;;;5.43;;
71106;SDS011;58763;47.982;11.516;2023-09-07T03:59:52;9.80;;;5.80;;
71106;SDS011;58763;47.982;11.516;2023-09-07T04:02:18;9.23;;;5.63;;
71106;SDS011;58763;47.982;11.516;2023-09-07T04:04:47;8.60;;;5.90;;
71106;SDS011;58763;47.982;11.516;2023-09-07T04:07:14;9.77;;;6.55;;
71106;SDS011;58763;47.982;11.516;2023-09-07T04:09:40;9.10;;;6.43;;
71106;SDS011;58763;47.982;11.516;2023-09-07T04:12:05;7.05;;;5.03;;
71106;SDS011;58763;47.982;11.516;2023-09-07T04:14:32;6.90;;;4.95;;
71106;SDS011;58763;47.982;11.516;2023-09-07T04:16:57;7.28;;;4.93;;
71106;SDS011;58763;47.982;11.516;2023-09-07T04:19:23;7.60;;;5.30;;
71106;SDS011;58763;47.982;11.516;2023-09-07T04:21:49;7.55;;;5.13;;
71106;SDS011;58763;47.982;11.516;2023-09-07T04:24:16;7.00;;;5.05;;
71106;SDS011;58763;47.982;11.516;2023-09-07T04:26:42;9.27;;;5.93;;
71106;SDS011;58763;47.982;11.516;2023-09-07T04:29:07;7.78;;;5.35;;
71106;SDS011;58763;47.982;11.516;2023-09-07T04:31:33;7.80;;;5.57;;
71106;SDS011;58763;47.982;11.516;2023-09-07T04:33:59;11.50;;;6.53;;
71106;SDS011;58763;47.982;11.516;2023-09-07T04:36:25;7.25;;;5.45;;
71106;SDS011;58763;47.982;11.516;2023-09-07T04:38:50;8.13;;;5.80;;
71106;SDS011;58763;47.982;11.516;2023-09-07T04:41:16;9.77;;;6.18;;
71106;SDS011;58763;47.982;11.516;2023-09-07T04:43:42;8.43;;;6.15;;
71106;SDS011;58763;47.982;11.516;2023-09-07T04:46:08;9.57;;;6.25;;
71106;SDS011;58763;47.982;11.516;2023-09-07T04:48:34;9.50;;;6.35;;
71106;SDS011;58763;47.982;11.516;2023-09-07T04:51:07;8.35;;;6.10;;
71106;SDS011;58763;47.982;11.516;2023-09-07T04:53:35;12.07;;;6.80;;
71106;SDS011;58763;47.982;11.516;2023-09-07T04:56:02;8.52;;;6.15;;
71106;SDS011;58763;47.982;11.516;2023-09-07T04:58:29;9.55;;;6.18;;
71106;SDS011;58763;47.982;11.516;2023-09-07T05:01:01;9.73;;;6.32;;
71106;SDS011;58763;47.982;11.516;2023-09-07T05:03:30;11.13;;;6.15;;
71106;SDS011;58763;47.982;11.516;2023-09-07T05:05:55;9.65;;;6.28;;
71106;SDS011;58763;47.982;11.516;2023-09-07T05:08:21;10.15;;;7.25;;
71106;SDS011;58763;47.982;11.516;2023-09-07T05:10:54;9.05;;;6.85;;
71106;SDS011;58763;47.982;11.516;2023-09-07T05:13:21;9.52;;;6.20;;
71106;SDS011;58763;47.982;11.516;2023-09-07T05:15:47;8.15;;;6.07;;
71106;SDS011;58763;47.982;11.516;2023-09-07T05:18:13;10.07;;;6.53;;
71106;SDS011;58763;47.982;11.516;2023-09-07T05:20:40;9.27;;;6.55;;
71106;SDS011;58763;47.982;11.516;2023-09-07T05:23:05;10.82;;;7.50;;
71106;SDS011;58763;47.982;11.516;2023-09-07T05:25:31;10.77;;;7.70;;
71106;SDS011;58763;47.982;11.516;2023-09-07T05:27:56;11.70;;;7.00;;
71106;SDS011;58763;47.982;11.516;2023-09-07T05:30:22;11.68;;;7.53;;
71106;SDS011;58763;47.982;11.516;2023-09-07T05:32:48;10.65;;;7.47;;
71106;SDS011;58763;47.982;11.516;2023-09-07T05:35:13;13.25;;;8.02;;
71106;SDS011;58763;47.982;11.516;2023-09-07T05:37:41;11.23;;;7.68;;
71106;SDS011;58763;47.982;11.516;2023-09-07T05:40:07;12.02;;;8.38;;
71106;SDS011;58763;47.982;11.516;2023-09-07T05:42:33;10.48;;;7.35;;
71106;SDS011;58763;47.982;11.516;2023-09-07T05:44:58;11.05;;;7.43;;
71106;SDS011;58763;47.982;11.516;2023-09-07T05:47:24;12.15;;;7.88;;
71106;SDS011;58763;47.982;11.516;2023-09-07T05:49:51;10.43;;;7.60;;
71106;SDS011;58763;47.982;11.516;2023-09-07T05:52:17;10.10;;;7.13;;
71106;SDS011;58763;47.982;11.516;2023-09-07T05:54:42;11.13;;;7.60;;
71106;SDS011;58763;47.982;11.516;2023-09-07T05:57:08;10.23;;;7.22;;
71106;SDS011;58763;47.982;11.516;2023-09-07T05:59:34;10.07;;;7.53;;
71106;SDS011;58763;47.982;11.516;2023-09-07T06:02:00;9.70;;;7.35;;
71106;SDS011;58763;47.982;11.516;2023-09-07T06:04:25;10.63;;;7.50;;
71106;SDS011;58763;47.982;11.516;2023-09-07T06:06:51;10.10;;;7.07;;
71106;SDS011;58763;47.982;11.516;2023-09-07T06:09:17;11.40;;;7.70;;
71106;SDS011;58763;47.982;11.516;2023-09-07T06:11:42;11.52;;;7.68;;
71106;SDS011;58763;47.982;11.516;2023-09-07T06:14:07;10.63;;;7.53;;
71106;SDS011;58763;47.982;11.516;2023-09-07T06:16:33;10.90;;;7.22;;
71106;SDS011;58763;47.982;11.516;2023-09-07T06:19:00;9.88;;;7.50;;
71106;SDS011;58763;47.982;11.516;2023-09-07T06:21:25;10.65;;;7.47;;
71106;SDS011;58763;47.982;11.516;2023-09-07T06:23:51;11.20;;;7.43;;
71106;SDS011;58763;47.982;11.516;2023-09-07T06:26:16;11.80;;;7.38;;
71106;SDS011;58763;47.982;11.516;2023-09-07T06:28:43;9.93;;;7.10;;
71106;SDS011;58763;47.982;11.516;2023-09-07T06:31:08;10.65;;;7.30;;
71106;SDS011;58763;47.982;11.516;2023-09-07T06:33:34;10.68;;;7.35;;
71106;SDS011;58763;47.982;11.516;2023-09-07T06:36:00;10.18;;;6.95;;
71106;SDS011;58763;47.982;11.516;2023-09-07T06:38:27;9.80;;;7.55;;
71106;SDS011;58763;47.982;11.516;2023-09-07T06:40:53;10.75;;;7.57;;
71106;SDS011;58763;47.982;11.516;2023-09-07T06:43:18;10.38;;;7.50;;
71106;SDS011;58763;47.982;11.516;2023-09-07T06:45:44;8.77;;;6.47;;
71106;SDS011;58763;47.982;11.516;2023-09-07T06:48:09;10.48;;;6.75;;
71106;SDS011;58763;47.982;11.516;2023-09-07T06:50:35;9.77;;;7.07;;
71106;SDS011;58763;47.982;11.516;2023-09-07T06:53:01;9.20;;;5.63;;
71106;SDS011;58763;47.982;11.516;2023-09-07T06:55:28;9.77;;;7.20;;
71106;SDS011;58763;47.982;11.516;2023-09-07T06:57:54;9.65;;;7.13;;
71106;SDS011;58763;47.982;11.516;2023-09-07T07:00:20;11.02;;;7.07;;
71106;SDS011;58763;47.982;11.516;2023-09-07T07:02:46;10.38;;;7.70;;
71106;SDS011;58763;47.982;11.516;2023-09-07T07:05:11;12.77;;;8.75;;
71106;SDS011;58763;47.982;11.516;2023-09-07T07:07:37;12.45;;;8.85;;
71106;SDS011;58763;47.982;11.516;2023-09-07T07:10:02;13.45;;;7.28;;
71106;SDS011;58763;47.982;11.516;2023-09-07T07:12:28;9.27;;;6.65;;
71106;SDS011;58763;47.982;11.516;2023-09-07T07:14:53;9.23;;;6.20;;
71106;SDS011;58763;47.982;11.516;2023-09-07T07:17:20;9.38;;;6.32;;
71106;SDS011;58763;47.982;11.516;2023-09-07T07:19:46;9.35;;;5.90;;
71106;SDS011;58763;47.982;11.516;2023-09-07T07:22:12;9.80;;;6.75;;
71106;SDS011;58763;47.982;11.516;2023-09-07T07:24:38;10.05;;;6.78;;
71106;SDS011;58763;47.982;11.516;2023-09-07T07:27:03;11.63;;;7.05;;
71106;SDS011;58763;47.982;11.516;2023-09-07T07:29:29;11.05;;;6.57;;
71106;SDS011;58763;47.982;11.516;2023-09-07T07:31:54;8.10;;;6.03;;
71106;SDS011;58763;47.982;11.516;2023-09-07T07:34:20;10.52;;;6.25;;
71106;SDS011;58763;47.982;11.516;2023-09-07T07:36:46;7.88;;;5.85;;
71106;SDS011;58763;47.982;11.516;2023-09-07T07:39:11;7.78;;;5.78;;
71106;SDS011;58763;47.982;11.516;2023-09-07T07:41:37;10.15;;;6.65;;
71106;SDS011;58763;47.982;11.516;2023-09-07T07:44:03;7.97;;;5.95;;
71106;SDS011;58763;47.982;11.516;2023-09-07T07:46:29;7.30;;;5.53;;
71106;SDS011;58763;47.982;11.516;2023-09-07T07:48:54;7.72;;;5.75;;
71106;SDS011;58763;47.982;11.516;2023-09-07T07:51:20;7.50;;;5.78;;
71106;SDS011;58763;47.982;11.516;2023-09-07T07:53:47;7.32;;;5.53;;
71106;SDS011;58763;47.982;11.516;2023-09-07T07:56:15;7.18;;;5.50;;
71106;SDS011;58763;47.982;11.516;2023-09-07T07:58:41;8.35;;;5.72;;
71106;SDS011;58763;47.982;11.516;2023-09-07T08:01:14;8.38;;;4.95;;
71106;SDS011;58763;47.982;11.516;2023-09-07T08:03:43;8.40;;;5.45;;
71106;SDS011;58763;47.982;11.516;2023-09-07T08:06:10;8.48;;;5.15;;
71106;SDS011;58763;47.982;11.516;2023-09-07T08:08:36;6.97;;;4.93;;
71106;SDS011;58763;47.982;11.516;2023-09-07T08:11:02;10.27;;;4.90;;
71106;SDS011;58763;47.982;11.516;2023-09-07T08:13:34;6.95;;;5.10;;
71106;SDS011;58763;47.982;11.516;2023-09-07T08:16:03;8.55;;;5.40;;
71106;SDS011;58763;47.982;11.516;2023-09-07T08:18:30;7.50;;;5.10;;
71106;SDS011;58763;47.982;11.516;2023-09-07T08:20:57;8.00;;;5.00;;
71106;SDS011;58763;47.982;11.516;2023-09-07T08:23:23;8.85;;;5.00;;
71106;SDS011;58763;47.982;11.516;2023-09-07T08:25:50;7.10;;;5.40;;
71106;SDS011;58763;47.982;11.516;2023-09-07T08:28:17;7.93;;;5.07;;
71106;SDS011;58763;47.982;11.516;2023-09-07T08:30:43;6.40;;;4.78;;
71106;SDS011;58763;47.982;11.516;2023-09-07T08:33:09;8.52;;;5.10;;
71106;SDS011;58763;47.982;11.516;2023-09-07T08:35:35;7.93;;;5.60;;
71106;SDS011;58763;47.982;11.516;2023-09-07T08:38:02;8.88;;;5.20;;
71106;SDS011;58763;47.982;11.516;2023-09-07T08:40:30;7.32;;;5.05;;
71106;SDS011;58763;47.982;11.516;2023-09-07T08:43:00;7.78;;;5.22;;
71106;SDS011;58763;47.982;11.516;2023-09-07T08:45:29;6.28;;;4.63;;
71106;SDS011;58763;47.982;11.516;2023-09-07T08:47:59;8.50;;;4.72;;
71106;SDS011;58763;47.982;11.516;2023-09-07T08:50:24;7.25;;;4.65;;
71106;SDS011;58763;47.982;11.516;2023-09-07T08:52:51;8.05;;;4.85;;
71106;SDS011;58763;47.982;11.516;2023-09-07T08:55:18;8.23;;;4.97;;
71106;SDS011;58763;47.982;11.516;2023-09-07T08:57:45;8.55;;;5.03;;
71106;SDS011;58763;47.982;11.516;2023-09-07T09:00:10;6.25;;;4.43;;
71106;SDS011;58763;47.982;11.516;2023-09-07T09:02:50;7.75;;;4.70;;
71106;SDS011;58763;47.982;11.516;2023-09-07T09:05:20;8.77;;;4.82;;
71106;SDS011;58763;47.982;11.516;2023-09-07T09:07:45;6.32;;;4.53;;
71106;SDS011;58763;47.982;11.516;2023-09-07T09:10:10;6.60;;;4.70;;
71106;SDS011;58763;47.982;11.516;2023-09-07T09:12:44;7.53;;;4.85;;
71106;SDS011;58763;47.982;11.516;2023-09-07T09:15:10;6.85;;;4.95;;
71106;SDS011;58763;47.982;11.516;2023-09-07T09:17:35;6.60;;;4.85;;
71106;SDS011;58763;47.982;11.516;2023-09-07T09:20:01;9.52;;;5.40;;
71106;SDS011;58763;47.982;11.516;2023-09-07T09:22:30;6.30;;;4.60;;
71106;SDS011;58763;47.982;11.516;2023-09-07T09:24:56;5.85;;;4.50;;
71106;SDS011;58763;47.982;11.516;2023-09-07T09:27:21;6.68;;;4.60;;
71106;SDS011;58763;47.982;11.516;2023-09-07T09:29:49;6.63;;;4.78;;
71106;SDS011;58763;47.982;11.516;2023-09-07T09:32:15;9.05;;;4.90;;
71106;SDS011;58763;47.982;11.516;2023-09-07T09:34:43;8.82;;;4.88;;
71106;SDS011;58763;47.982;11.516;2023-09-07T09:37:12;5.95;;;4.55;;
71106;SDS011;58763;47.982;11.516;2023-09-07T09:39:40;8.45;;;5.03;;
71106;SDS011;58763;47.982;11.516;2023-09-07T09:42:06;9.00;;;5.40;;
71106;SDS011;58763;47.982;11.516;2023-09-07T09:44:33;6.60;;;5.20;;
71106;SDS011;58763;47.982;11.516;2023-09-07T09:47:01;7.85;;;4.78;;
71106;SDS011;58763;47.982;11.516;2023-09-07T09:49:28;6.97;;;5.05;;
71106;SDS011;58763;47.982;11.516;2023-09-07T09:51:54;7.03;;;4.78;;
71106;SDS011;58763;47.982;11.516;2023-09-07T09:54:23;8.88;;;5.07;;
71106;SDS011;58763;47.982;11.516;2023-09-07T09:56:50;6.18;;;4.38;;
71106;SDS011;58763;47.982;11.516;2023-09-07T09:59:16;6.95;;;4.90;;
71106;SDS011;58763;47.982;11.516;2023-09-07T10:01:46;9.02;;;5.28;;
71106;SDS011;58763;47.982;11.516;2023-09-07T10:04:14;7.60;;;4.88;;
71106;SDS011;58763;47.982;11.516;2023-09-07T10:06:55;6.47;;;5.15;;
71106;SDS011;58763;47.982;11.516;2023-09-07T10:09:21;7.43;;;4.78;;
71106;SDS011;58763;47.982;11.516;2023-09-07T10:11:51;6.65;;;4.47;;
71106;SDS011;58763;47.982;11.516;2023-09-07T10:14:18;7.22;;;4.90;;
71106;SDS011;58763;47.982;11.516;2023-09-07T10:16:53;8.05;;;4.60;;
71106;SDS011;58763;47.982;11.516;2023-09-07T10:21:52;7.35;;;4.95;;
71106;SDS011;58763;47.982;11.516;2023-09-07T10:24:29;7.70;;;4.75;;
71106;SDS011;58763;47.982;11.516;2023-09-07T10:26:56;5.85;;;4.38;;
71106;SDS011;58763;47.982;11.516;2023-09-07T10:29:25;5.97;;;4.45;;
71106;SDS011;58763;47.982;11.516;2023-09-07T10:31:51;10.00;;;4.30;;
71106;SDS011;58763;47.982;11.516;2023-09-07T10:34:17;7.20;;;4.63;;
71106;SDS011;58763;47.982;11.516;2023-09-07T10:36:43;6.43;;;4.55;;
71106;SDS011;58763;47.982;11.516;2023-09-07T10:39:09;6.88;;;4.50;;
71106;SDS011;58763;47.982;11.516;2023-09-07T10:41:44;7.10;;;4.43;;
71106;SDS011;58763;47.982;11.516;2023-09-07T10:44:10;7.38;;;4.85;;
71106;SDS011;58763;47.982;11.516;2023-09-07T10:46:37;9.05;;;5.00;;
71106;SDS011;58763;47.982;11.516;2023-09-07T10:49:03;6.68;;;4.90;;
71106;SDS011;58763;47.982;11.516;2023-09-07T10:51:39;7.30;;;4.60;;
71106;SDS011;58763;47.982;11.516;2023-09-07T10:54:43;9.60;;;4.78;;
71106;SDS011;58763;47.982;11.516;2023-09-07T10:57:11;6.85;;;4.53;;
71106;SDS011;58763;47.982;11.516;2023-09-07T10:59:38;6.30;;;4.22;;
71106;SDS011;58763;47.982;11.516;2023-09-07T11:02:09;8.85;;;4.47;;
71106;SDS011;58763;47.982;11.516;2023-09-07T11:04:34;5.47;;;4.25;;
71106;SDS011;58763;47.982;11.516;2023-09-07T11:07:00;8.15;;;4.10;;
71106;SDS011;58763;47.982;11.516;2023-09-07T11:09:29;6.50;;;4.75;;
71106;SDS011;58763;47.982;11.516;2023-09-07T11:11:55;9.38;;;4.35;;
71106;SDS011;58763;47.982;11.516;2023-09-07T11:14:21;7.97;;;4.75;;
71106;SDS011;58763;47.982;11.516;2023-09-07T11:16:47;7.90;;;4.40;;
71106;SDS011;58763;47.982;11.516;2023-09-07T11:19:13;5.53;;;4.13;;
71106;SDS011;58763;47.982;11.516;2023-09-07T11:21:40;6.88;;;4.30;;
71106;SDS011;58763;47.982;11.516;2023-09-07T11:24:06;7.63;;;4.68;;
71106;SDS011;58763;47.982;11.516;2023-09-07T11:26:46;6.30;;;4.30;;
71106;SDS011;58763;47.982;11.516;2023-09-07T11:29:15;7.15;;;4.65;;
71106;SDS011;58763;47.982;11.516;2023-09-07T11:31:42;6.20;;;4.32;;
71106;SDS011;58763;47.982;11.516;2023-09-07T11:34:09;8.65;;;4.70;;
71106;SDS011;58763;47.982;11.516;2023-09-07T11:39:04;8.18;;;3.85;;
71106;SDS011;58763;47.982;11.516;2023-09-07T11:41:43;6.22;;;4.20;;
71106;SDS011;58763;47.982;11.516;2023-09-07T11:44:10;6.60;;;4.90;;
71106;SDS011;58763;47.982;11.516;2023-09-07T11:46:36;7.85;;;4.30;;
71106;SDS011;58763;47.982;11.516;2023-09-07T11:49:02;8.77;;;4.65;;
71106;SDS011;58763;47.982;11.516;2023-09-07T11:51:29;7.53;;;4.50;;
71106;SDS011;58763;47.982;11.516;2023-09-07T11:53:55;8.27;;;4.55;;
71106;SDS011;58763;47.982;11.516;2023-09-07T11:56:21;6.82;;;4.18;;
71106;SDS011;58763;47.982;11.516;2023-09-07T11:58:46;6.32;;;4.40;;
71106;SDS011;58763;47.982;11.516;2023-09-07T12:01:13;5.85;;;4.07;;
71106;SDS011;58763;47.982;11.516;2023-09-07T12:03:42;7.57;;;4.10;;
71106;SDS011;58763;47.982;11.516;2023-09-07T12:06:10;8.75;;;4.47;;
71106;SDS011;58763;47.982;11.516;2023-09-07T12:08:36;6.53;;;4.53;;
71106;SDS011;58763;47.982;11.516;2023-09-07T12:11:02;10.15;;;4.90;;
71106;SDS011;58763;47.982;11.516;2023-09-07T12:13:27;8.65;;;4.55;;
71106;SDS011;58763;47.982;11.516;2023-09-07T12:15:53;5.85;;;4.28;;
71106;SDS011;58763;47.982;11.516;2023-09-07T12:18:18;6.75;;;4.20;;
71106;SDS011;58763;47.982;11.516;2023-09-07T12:20:44;7.78;;;4.60;;
71106;SDS011;58763;47.982;11.516;2023-09-07T12:23:12;6.38;;;4.47;;
71106;SDS011;58763;47.982;11.516;2023-09-07T12:25:37;6.63;;;4.10;;
71106;SDS011;58763;47.982;11.516;2023-09-07T12:28:03;6.43;;;4.18;;
71106;SDS011;58763;47.982;11.516;2023-09-07T12:30:29;6.38;;;4.15;;
71106;SDS011;58763;47.982;11.516;2023-09-07T12:32:54;6.55;;;4.10;;
71106;SDS011;58763;47.982;11.516;2023-09-07T12:35:20;6.30;;;4.13;;
71106;SDS011;58763;47.982;11.516;2023-09-07T12:37:46;7.20;;;4.30;;
71106;SDS011;58763;47.982;11.516;2023-09-07T12:40:12;6.13;;;4.00;;
71106;SDS011;58763;47.982;11.516;2023-09-07T12:42:38;6.43;;;4.13;;
71106;SDS011;58763;47.982;11.516;2023-09-07T12:45:05;5.80;;;4.30;;
71106;SDS011;58763;47.982;11.516;2023-09-07T12:47:31;7.05;;;4.10;;
71106;SDS011;58763;47.982;11.516;2023-09-07T12:49:57;5.60;;;4.18;;
71106;SDS011;58763;47.982;11.516;2023-09-07T12:52:23;8.55;;;4.18;;
71106;SDS011;58763;47.982;11.516;2023-09-07T12:54:48;7.15;;;4.05;;
71106;SDS011;58763;47.982;11.516;2023-09-07T12:57:14;6.60;;;4.03;;
71106;SDS011;58763;47.982;11.516;2023-09-07T12:59:39;6.05;;;3.97;;
71106;SDS011;58763;47.982;11.516;2023-09-07T13:02:05;5.32;;;3.60;;
71106;SDS011;58763;47.982;11.516;2023-09-07T13:04:30;6.97;;;3.67;;
71106;SDS011;58763;47.982;11.516;2023-09-07T13:06:56;7.57;;;3.50;;
71106;SDS011;58763;47.982;11.516;2023-09-07T13:09:21;6.50;;;4.00;;
71106;SDS011;58763;47.982;11.516;2023-09-07T13:11:47;6.03;;;3.65;;
71106;SDS011;58763;47.982;11.516;2023-09-07T13:14:12;7.00;;;3.50;;
71106;SDS011;58763;47.982;11.516;2023-09-07T13:16:38;5.95;;;3.67;;
71106;SDS011;58763;47.982;11.516;2023-09-07T13:19:04;6.53;;;3.65;;
71106;SDS011;58763;47.982;11.516;2023-09-07T13:21:30;5.05;;;3.50;;
71106;SDS011;58763;47.982;11.516;2023-09-07T13:23:56;5.68;;;3.75;;
71106;SDS011;58763;47.982;11.516;2023-09-07T13:26:21;5.60;;;3.75;;
71106;SDS011;58763;47.982;11.516;2023-09-07T13:28:47;5.85;;;4.05;;
71106;SDS011;58763;47.982;11.516;2023-09-07T13:31:12;5.68;;;3.75;;
71106;SDS011;58763;47.982;11.516;2023-09-07T13:33:38;6.65;;;3.55;;
71106;SDS011;58763;47.982;11.516;2023-09-07T13:36:03;5.72;;;3.83;;
71106;SDS011;58763;47.982;11.516;2023-09-07T13:38:29;5.47;;;4.05;;
71106;SDS011;58763;47.982;11.516;2023-09-07T13:40:54;5.47;;;3.50;;
71106;SDS011;58763;47.982;11.516;2023-09-07T13:43:19;5.97;;;3.63;;
71106;SDS011;58763;47.982;11.516;2023-09-07T13:45:45;6.55;;;3.80;;
71106;SDS011;58763;47.982;11.516;2023-09-07T13:48:10;5.88;;;3.80;;
71106;SDS011;58763;47.982;11.516;2023-09-07T13:50:36;5.32;;;3.70;;
71106;SDS011;58763;47.982;11.516;2023-09-07T13:53:02;5.32;;;3.65;;
71106;SDS011;58763;47.982;11.516;2023-09-07T13:55:27;6.13;;;4.05;;
71106;SDS011;58763;47.982;11.516;2023-09-07T13:57:53;7.97;;;3.90;;
71106;SDS011;58763;47.982;11.516;2023-09-07T14:00:18;6.28;;;3.70;;
71106;SDS011;58763;47.982;11.516;2023-09-07T14:02:44;5.55;;;4.07;;
71106;SDS011;58763;47.982;11.516;2023-09-07T14:05:09;5.72;;;3.67;;
71106;SDS011;58763;47.982;11.516;2023-09-07T14:07:36;4.80;;;3.40;;
71106;SDS011;58763;47.982;11.516;2023-09-07T14:10:01;7.97;;;3.80;;
71106;SDS011;58763;47.982;11.516;2023-09-07T14:12:27;5.47;;;3.50;;
71106;SDS011;58763;47.982;11.516;2023-09-07T14:14:52;4.72;;;3.15;;
71106;SDS011;58763;47.982;11.516;2023-09-07T14:17:18;6.75;;;3.28;;
71106;SDS011;58763;47.982;11.516;2023-09-07T14:19:43;5.95;;;3.28;;
71106;SDS011;58763;47.982;11.516;2023-09-07T14:22:11;4.85;;;3.08;;
71106;SDS011;58763;47.982;11.516;2023-09-07T14:24:37;4.28;;;3.10;;
71106;SDS011;58763;47.982;11.516;2023-09-07T14:27:02;5.53;;;3.17;;
71106;SDS011;58763;47.982;11.516;2023-09-07T14:29:28;5.18;;;3.45;;
71106;SDS011;58763;47.982;11.516;2023-09-07T14:31:54;7.40;;;3.10;;
71106;SDS011;58763;47.982;11.516;2023-09-07T14:34:19;4.57;;;2.85;;